sensor_id;sensor_type;location;lat;lon;timestamp;temperature;humidity
9118;DHT22;4594;50.994;7.126;2023-05-14T00:00:14;12.50;46.10
9118;DHT22;4594;50.994;7.126;2023-05-14T00:02:40;12.50;46.20
9118;DHT22;4594;50.994;7.126;2023-05-14T00:05:07;12.40;46.20
9118;DHT22;4594;50.994;7.126;2023-05-14T00:07:33;12.40;46.20
9118;DHT22;4594;50.994;7.126;2023-05-14T00:09:59;12.40;46.20
9118;DHT22;4594;50.994;7.126;2023-05-14T00:12:25;12.40;46.30
9118;DHT22;4594;50.994;7.126;2023-05-14T00:14:52;12.30;46.30
9118;DHT22;4594;50.994;7.126;2023-05-14T00:17:18;12.30;46.30
9118;DHT22;4594;50.994;7.126;2023-05-14T00:19:44;12.30;46.40
9118;DHT22;4594;50.994;7.126;2023-05-14T00:22:10;12.30;46.50
9118;DHT22;4594;50.994;7.126;2023-05-14T00:24:36;12.30;46.60
9118;DHT22;4594;50.994;7.126;2023-05-14T00:27:02;12.30;46.70
9118;DHT22;4594;50.994;7.126;2023-05-14T00:29:28;12.20;46.70
9118;DHT22;4594;50.994;7.126;2023-05-14T00:31:54;12.20;46.70
9118;DHT22;4594;50.994;7.126;2023-05-14T00:34:20;12.20;46.80
9118;DHT22;4594;50.994;7.126;2023-05-14T00:36:46;12.20;46.90
9118;DHT22;4594;50.994;7.126;2023-05-14T00:39:12;12.20;46.90
9118;DHT22;4594;50.994;7.126;2023-05-14T00:41:38;12.20;46.90
9118;DHT22;4594;50.994;7.126;2023-05-14T00:44:04;12.20;46.90
9118;DHT22;4594;50.994;7.126;2023-05-14T00:46:30;12.20;46.90
9118;DHT22;4594;50.994;7.126;2023-05-14T00:48:56;12.20;46.90
9118;DHT22;4594;50.994;7.126;2023-05-14T00:51:23;12.20;47.00
9118;DHT22;4594;50.994;7.126;2023-05-14T00:53:49;12.10;47.00
9118;DHT22;4594;50.994;7.126;2023-05-14T00:56:16;12.10;47.00
9118;DHT22;4594;50.994;7.126;2023-05-14T00:58:43;12.10;47.10
9118;DHT22;4594;50.994;7.126;2023-05-14T01:01:09;12.10;47.10
9118;DHT22;4594;50.994;7.126;2023-05-14T01:03:35;12.00;47.00
9118;DHT22;4594;50.994;7.126;2023-05-14T01:09:35;12.00;47.20
9118;DHT22;4594;50.994;7.126;2023-05-14T01:12:15;12.00;47.10
9118;DHT22;4594;50.994;7.126;2023-05-14T01:14:53;11.90;47.00
9118;DHT22;4594;50.994;7.126;2023-05-14T01:17:27;11.90;47.00
9118;DHT22;4594;50.994;7.126;2023-05-14T01:19:55;11.80;47.00
9118;DHT22;4594;50.994;7.126;2023-05-14T01:22:22;11.80;47.10
9118;DHT22;4594;50.994;7.126;2023-05-14T01:24:47;11.80;47.10
9118;DHT22;4594;50.994;7.126;2023-05-14T01:27:29;11.70;47.10
9118;DHT22;4594;50.994;7.126;2023-05-14T01:30:17;11.70;47.20
9118;DHT22;4594;50.994;7.126;2023-05-14T01:32:50;11.70;47.20
9118;DHT22;4594;50.994;7.126;2023-05-14T01:35:21;11.60;47.40
9118;DHT22;4594;50.994;7.126;2023-05-14T01:37:49;11.60;47.30
9118;DHT22;4594;50.994;7.126;2023-05-14T01:40:16;11.60;47.30
9118;DHT22;4594;50.994;7.126;2023-05-14T01:42:42;11.50;47.30
9118;DHT22;4594;50.994;7.126;2023-05-14T01:45:09;11.50;47.30
9118;DHT22;4594;50.994;7.126;2023-05-14T01:47:35;11.50;47.50
9118;DHT22;4594;50.994;7.126;2023-05-14T01:50:01;11.50;47.60
9118;DHT22;4594;50.994;7.126;2023-05-14T01:52:26;11.40;47.60
9118;DHT22;4594;50.994;7.126;2023-05-14T01:54:52;11.40;47.60
9118;DHT22;4594;50.994;7.126;2023-05-14T01:57:18;11.50;47.80
9118;DHT22;4594;50.994;7.126;2023-05-14T01:59:43;11.40;47.80
9118;DHT22;4594;50.994;7.126;2023-05-14T02:02:09;11.40;47.80
9118;DHT22;4594;50.994;7.126;2023-05-14T02:04:35;11.50;47.90
9118;DHT22;4594;50.994;7.126;2023-05-14T02:07:00;11.30;48.10
9118;DHT22;4594;50.994;7.126;2023-05-14T02:09:26;11.30;47.90
9118;DHT22;4594;50.994;7.126;2023-05-14T02:11:52;11.40;48.00
9118;DHT22;4594;50.994;7.126;2023-05-14T02:14:17;11.30;47.90
9118;DHT22;4594;50.994;7.126;2023-05-14T02:16:43;11.20;47.90
9118;DHT22;4594;50.994;7.126;2023-05-14T02:19:08;11.20;48.00
9118;DHT22;4594;50.994;7.126;2023-05-14T02:21:34;11.20;48.00
9118;DHT22;4594;50.994;7.126;2023-05-14T02:24:00;11.20;48.10
9118;DHT22;4594;50.994;7.126;2023-05-14T02:26:25;11.10;48.10
9118;DHT22;4594;50.994;7.126;2023-05-14T02:28:51;11.10;48.10
9118;DHT22;4594;50.994;7.126;2023-05-14T02:31:17;11.10;48.10
9118;DHT22;4594;50.994;7.126;2023-05-14T02:33:43;11.10;48.20
9118;DHT22;4594;50.994;7.126;2023-05-14T02:36:09;11.10;48.50
9118;DHT22;4594;50.994;7.126;2023-05-14T02:38:35;11.10;48.20
9118;DHT22;4594;50.994;7.126;2023-05-14T02:41:01;11.00;48.20
9118;DHT22;4594;50.994;7.126;2023-05-14T02:43:26;11.00;48.20
9118;DHT22;4594;50.994;7.126;2023-05-14T02:45:52;11.00;48.30
9118;DHT22;4594;50.994;7.126;2023-05-14T02:48:18;10.90;48.30
9118;DHT22;4594;50.994;7.126;2023-05-14T02:50:43;10.90;48.40
9118;DHT22;4594;50.994;7.126;2023-05-14T02:53:09;10.90;48.70
9118;DHT22;4594;50.994;7.126;2023-05-14T02:55:35;10.90;48.60
9118;DHT22;4594;50.994;7.126;2023-05-14T02:58:01;10.90;48.60
9118;DHT22;4594;50.994;7.126;2023-05-14T03:00:27;10.90;48.70
9118;DHT22;4594;50.994;7.126;2023-05-14T03:02:53;10.80;48.60
9118;DHT22;4594;50.994;7.126;2023-05-14T03:05:18;10.80;48.70
9118;DHT22;4594;50.994;7.126;2023-05-14T03:07:44;10.80;48.70
9118;DHT22;4594;50.994;7.126;2023-05-14T03:10:10;10.80;48.80
9118;DHT22;4594;50.994;7.126;2023-05-14T03:12:36;10.80;48.80
9118;DHT22;4594;50.994;7.126;2023-05-14T03:15:02;10.80;48.90
9118;DHT22;4594;50.994;7.126;2023-05-14T03:17:28;10.80;49.00
9118;DHT22;4594;50.994;7.126;2023-05-14T03:19:53;10.80;49.00
9118;DHT22;4594;50.994;7.126;2023-05-14T03:22:19;10.80;49.10
9118;DHT22;4594;50.994;7.126;2023-05-14T03:24:45;10.80;49.20
9118;DHT22;4594;50.994;7.126;2023-05-14T03:27:10;10.80;49.20
9118;DHT22;4594;50.994;7.126;2023-05-14T03:29:36;10.80;49.20
9118;DHT22;4594;50.994;7.126;2023-05-14T03:32:02;10.80;49.20
9118;DHT22;4594;50.994;7.126;2023-05-14T03:34:27;10.80;49.10
9118;DHT22;4594;50.994;7.126;2023-05-14T03:36:53;10.70;49.00
9118;DHT22;4594;50.994;7.126;2023-05-14T03:39:19;10.70;49.10
9118;DHT22;4594;50.994;7.126;2023-05-14T03:41:46;10.70;49.00
9118;DHT22;4594;50.994;7.126;2023-05-14T03:44:12;10.70;49.10
9118;DHT22;4594;50.994;7.126;2023-05-14T03:46:38;10.70;49.20
9118;DHT22;4594;50.994;7.126;2023-05-14T03:49:05;10.70;49.30
9118;DHT22;4594;50.994;7.126;2023-05-14T03:51:31;10.70;49.30
9118;DHT22;4594;50.994;7.126;2023-05-14T03:53:57;10.60;49.10
9118;DHT22;4594;50.994;7.126;2023-05-14T03:56:23;10.60;49.10
9118;DHT22;4594;50.994;7.126;2023-05-14T03:58:51;10.60;49.10
9118;DHT22;4594;50.994;7.126;2023-05-14T04:01:16;10.60;49.10
9118;DHT22;4594;50.994;7.126;2023-05-14T04:03:42;10.60;49.20
9118;DHT22;4594;50.994;7.126;2023-05-14T04:06:08;10.50;49.20
9118;DHT22;4594;50.994;7.126;2023-05-14T04:08:34;10.50;49.20
9118;DHT22;4594;50.994;7.126;2023-05-14T04:10:59;10.50;49.30
9118;DHT22;4594;50.994;7.126;2023-05-14T04:13:25;10.50;49.40
9118;DHT22;4594;50.994;7.126;2023-05-14T04:15:51;10.50;49.40
9118;DHT22;4594;50.994;7.126;2023-05-14T04:18:17;10.50;49.40
9118;DHT22;4594;50.994;7.126;2023-05-14T04:20:42;10.40;49.50
9118;DHT22;4594;50.994;7.126;2023-05-14T04:23:08;10.60;49.70
9118;DHT22;4594;50.994;7.126;2023-05-14T04:25:34;10.50;49.80
9118;DHT22;4594;50.994;7.126;2023-05-14T04:28:00;10.50;49.80
9118;DHT22;4594;50.994;7.126;2023-05-14T04:30:25;10.50;49.90
9118;DHT22;4594;50.994;7.126;2023-05-14T04:32:51;10.50;50.00
9118;DHT22;4594;50.994;7.126;2023-05-14T04:35:17;10.50;50.10
9118;DHT22;4594;50.994;7.126;2023-05-14T04:37:42;10.50;50.20
9118;DHT22;4594;50.994;7.126;2023-05-14T04:40:08;10.60;50.40
9118;DHT22;4594;50.994;7.126;2023-05-14T04:42:37;10.60;50.40
9118;DHT22;4594;50.994;7.126;2023-05-14T04:45:04;10.60;50.50
9118;DHT22;4594;50.994;7.126;2023-05-14T04:47:31;10.60;50.40
9118;DHT22;4594;50.994;7.126;2023-05-14T04:49:57;10.70;50.60
9118;DHT22;4594;50.994;7.126;2023-05-14T04:52:23;10.70;50.70
9118;DHT22;4594;50.994;7.126;2023-05-14T04:54:49;10.80;50.90
9118;DHT22;4594;50.994;7.126;2023-05-14T04:57:15;10.80;51.00
9118;DHT22;4594;50.994;7.126;2023-05-14T04:59:40;10.80;51.10
9118;DHT22;4594;50.994;7.126;2023-05-14T05:02:06;11.00;51.30
9118;DHT22;4594;50.994;7.126;2023-05-14T05:04:32;10.90;51.30
9118;DHT22;4594;50.994;7.126;2023-05-14T05:06:58;11.00;51.60
9118;DHT22;4594;50.994;7.126;2023-05-14T05:09:23;11.10;52.00
9118;DHT22;4594;50.994;7.126;2023-05-14T05:11:49;11.20;52.50
9118;DHT22;4594;50.994;7.126;2023-05-14T05:14:15;11.30;53.10
9118;DHT22;4594;50.994;7.126;2023-05-14T05:16:41;11.50;53.80
9118;DHT22;4594;50.994;7.126;2023-05-14T05:19:06;11.70;54.50
9118;DHT22;4594;50.994;7.126;2023-05-14T05:21:32;11.90;55.10
9118;DHT22;4594;50.994;7.126;2023-05-14T05:23:58;12.30;55.90
9118;DHT22;4594;50.994;7.126;2023-05-14T05:26:25;12.60;56.50
9118;DHT22;4594;50.994;7.126;2023-05-14T05:28:51;13.20;57.00
9118;DHT22;4594;50.994;7.126;2023-05-14T05:31:17;13.50;57.40
9118;DHT22;4594;50.994;7.126;2023-05-14T05:33:43;14.00;57.70
9118;DHT22;4594;50.994;7.126;2023-05-14T05:36:09;14.60;58.10
9118;DHT22;4594;50.994;7.126;2023-05-14T05:38:34;15.10;58.20
9118;DHT22;4594;50.994;7.126;2023-05-14T05:41:00;15.60;58.10
9118;DHT22;4594;50.994;7.126;2023-05-14T05:43:26;16.00;57.80
9118;DHT22;4594;50.994;7.126;2023-05-14T05:45:53;16.50;57.50
9118;DHT22;4594;50.994;7.126;2023-05-14T05:48:19;16.80;57.20
9118;DHT22;4594;50.994;7.126;2023-05-14T05:50:48;17.20;57.00
9118;DHT22;4594;50.994;7.126;2023-05-14T05:53:14;17.60;56.30
9118;DHT22;4594;50.994;7.126;2023-05-14T05:55:41;18.00;56.90
9118;DHT22;4594;50.994;7.126;2023-05-14T05:58:07;18.40;57.10
9118;DHT22;4594;50.994;7.126;2023-05-14T06:00:33;18.80;57.40
9118;DHT22;4594;50.994;7.126;2023-05-14T06:02:58;19.20;57.50
9118;DHT22;4594;50.994;7.126;2023-05-14T06:05:24;19.70;57.70
9118;DHT22;4594;50.994;7.126;2023-05-14T06:07:50;20.20;57.70
9118;DHT22;4594;50.994;7.126;2023-05-14T06:10:18;20.70;57.90
9118;DHT22;4594;50.994;7.126;2023-05-14T06:12:44;21.10;57.50
9118;DHT22;4594;50.994;7.126;2023-05-14T06:15:10;21.60;57.30
9118;DHT22;4594;50.994;7.126;2023-05-14T06:17:36;22.10;56.90
9118;DHT22;4594;50.994;7.126;2023-05-14T06:20:03;22.50;55.70
9118;DHT22;4594;50.994;7.126;2023-05-14T06:22:30;22.90;54.60
9118;DHT22;4594;50.994;7.126;2023-05-14T06:24:55;23.10;53.20
9118;DHT22;4594;50.994;7.126;2023-05-14T06:27:21;23.40;52.50
9118;DHT22;4594;50.994;7.126;2023-05-14T06:29:47;23.50;51.90
9118;DHT22;4594;50.994;7.126;2023-05-14T06:32:12;23.70;51.40
9118;DHT22;4594;50.994;7.126;2023-05-14T06:34:40;23.90;51.20
9118;DHT22;4594;50.994;7.126;2023-05-14T06:37:07;24.00;51.20
9118;DHT22;4594;50.994;7.126;2023-05-14T06:39:35;24.30;50.80
9118;DHT22;4594;50.994;7.126;2023-05-14T06:42:01;24.50;50.60
9118;DHT22;4594;50.994;7.126;2023-05-14T06:44:27;24.70;50.60
9118;DHT22;4594;50.994;7.126;2023-05-14T06:46:54;25.00;50.30
9118;DHT22;4594;50.994;7.126;2023-05-14T06:49:20;25.20;50.20
9118;DHT22;4594;50.994;7.126;2023-05-14T06:51:46;25.50;50.10
9118;DHT22;4594;50.994;7.126;2023-05-14T06:54:11;25.80;49.90
9118;DHT22;4594;50.994;7.126;2023-05-14T06:56:37;26.00;49.80
9118;DHT22;4594;50.994;7.126;2023-05-14T06:59:03;26.40;49.70
9118;DHT22;4594;50.994;7.126;2023-05-14T07:01:29;26.70;49.20
9118;DHT22;4594;50.994;7.126;2023-05-14T07:03:55;27.00;49.00
9118;DHT22;4594;50.994;7.126;2023-05-14T07:06:21;27.20;48.60
9118;DHT22;4594;50.994;7.126;2023-05-14T07:08:47;27.50;48.50
9118;DHT22;4594;50.994;7.126;2023-05-14T07:11:13;27.80;48.30
9118;DHT22;4594;50.994;7.126;2023-05-14T07:13:39;28.10;48.10
9118;DHT22;4594;50.994;7.126;2023-05-14T07:16:07;28.40;47.80
9118;DHT22;4594;50.994;7.126;2023-05-14T07:18:35;28.60;47.60
9118;DHT22;4594;50.994;7.126;2023-05-14T07:21:01;28.90;47.40
9118;DHT22;4594;50.994;7.126;2023-05-14T07:23:29;29.20;47.30
9118;DHT22;4594;50.994;7.126;2023-05-14T07:25:54;29.50;47.00
9118;DHT22;4594;50.994;7.126;2023-05-14T07:28:20;29.80;46.70
9118;DHT22;4594;50.994;7.126;2023-05-14T07:30:46;30.10;46.50
9118;DHT22;4594;50.994;7.126;2023-05-14T07:33:11;30.40;46.20
9118;DHT22;4594;50.994;7.126;2023-05-14T07:35:37;30.70;45.60
9118;DHT22;4594;50.994;7.126;2023-05-14T07:38:03;30.90;45.10
9118;DHT22;4594;50.994;7.126;2023-05-14T07:40:30;31.20;45.00
9118;DHT22;4594;50.994;7.126;2023-05-14T07:42:56;31.40;44.70
9118;DHT22;4594;50.994;7.126;2023-05-14T07:45:21;31.70;44.40
9118;DHT22;4594;50.994;7.126;2023-05-14T07:47:47;31.90;44.20
9118;DHT22;4594;50.994;7.126;2023-05-14T07:50:16;32.10;44.00
9118;DHT22;4594;50.994;7.126;2023-05-14T07:52:43;32.30;43.90
9118;DHT22;4594;50.994;7.126;2023-05-14T07:55:09;32.50;43.80
9118;DHT22;4594;50.994;7.126;2023-05-14T07:57:35;32.80;43.60
9118;DHT22;4594;50.994;7.126;2023-05-14T08:00:02;33.00;43.40
9118;DHT22;4594;50.994;7.126;2023-05-14T08:02:29;33.20;43.30
9118;DHT22;4594;50.994;7.126;2023-05-14T08:04:54;33.50;43.10
9118;DHT22;4594;50.994;7.126;2023-05-14T08:07:20;33.80;43.20
9118;DHT22;4594;50.994;7.126;2023-05-14T08:09:46;34.00;42.80
9118;DHT22;4594;50.994;7.126;2023-05-14T08:12:11;34.30;42.60
9118;DHT22;4594;50.994;7.126;2023-05-14T08:14:38;34.50;42.50
9118;DHT22;4594;50.994;7.126;2023-05-14T08:17:03;34.70;42.10
9118;DHT22;4594;50.994;7.126;2023-05-14T08:19:29;34.90;42.00
9118;DHT22;4594;50.994;7.126;2023-05-14T08:21:55;35.10;42.00
9118;DHT22;4594;50.994;7.126;2023-05-14T08:24:20;35.40;41.80
9118;DHT22;4594;50.994;7.126;2023-05-14T08:26:46;35.70;41.80
9118;DHT22;4594;50.994;7.126;2023-05-14T08:29:12;35.90;41.70
9118;DHT22;4594;50.994;7.126;2023-05-14T08:31:37;36.10;41.10
9118;DHT22;4594;50.994;7.126;2023-05-14T08:34:03;36.40;41.20
9118;DHT22;4594;50.994;7.126;2023-05-14T08:36:29;36.50;41.00
9118;DHT22;4594;50.994;7.126;2023-05-14T08:38:55;36.80;41.00
9118;DHT22;4594;50.994;7.126;2023-05-14T08:41:21;37.00;40.70
9118;DHT22;4594;50.994;7.126;2023-05-14T08:44:00;37.20;40.60
9118;DHT22;4594;50.994;7.126;2023-05-14T08:46:43;37.40;39.00
9118;DHT22;4594;50.994;7.126;2023-05-14T08:51:43;37.70;39.30
9118;DHT22;4594;50.994;7.126;2023-05-14T08:54:14;37.90;40.20
9118;DHT22;4594;50.994;7.126;2023-05-14T08:56:43;38.10;39.60
9118;DHT22;4594;50.994;7.126;2023-05-14T08:59:13;38.30;39.70
9118;DHT22;4594;50.994;7.126;2023-05-14T09:01:45;38.40;39.60
9118;DHT22;4594;50.994;7.126;2023-05-14T09:04:14;38.60;38.30
9118;DHT22;4594;50.994;7.126;2023-05-14T09:06:44;38.80;39.10
9118;DHT22;4594;50.994;7.126;2023-05-14T09:09:13;39.00;39.40
9118;DHT22;4594;50.994;7.126;2023-05-14T09:11:45;39.20;39.20
9118;DHT22;4594;50.994;7.126;2023-05-14T09:14:12;39.30;38.60
9118;DHT22;4594;50.994;7.126;2023-05-14T09:16:39;39.50;39.10
9118;DHT22;4594;50.994;7.126;2023-05-14T09:19:07;39.60;38.60
9118;DHT22;4594;50.994;7.126;2023-05-14T09:21:33;39.70;38.40
9118;DHT22;4594;50.994;7.126;2023-05-14T09:23:59;39.90;38.30
9118;DHT22;4594;50.994;7.126;2023-05-14T09:26:26;40.00;38.60
9118;DHT22;4594;50.994;7.126;2023-05-14T09:29:00;40.20;38.30
9118;DHT22;4594;50.994;7.126;2023-05-14T09:31:28;40.30;37.30
9118;DHT22;4594;50.994;7.126;2023-05-14T09:33:56;40.40;37.80
9118;DHT22;4594;50.994;7.126;2023-05-14T09:36:23;40.50;37.70
9118;DHT22;4594;50.994;7.126;2023-05-14T09:38:57;40.60;37.80
9118;DHT22;4594;50.994;7.126;2023-05-14T09:41:23;40.70;37.60
9118;DHT22;4594;50.994;7.126;2023-05-14T09:43:52;40.80;37.40
9118;DHT22;4594;50.994;7.126;2023-05-14T09:46:18;40.90;37.10
9118;DHT22;4594;50.994;7.126;2023-05-14T09:48:44;41.00;37.40
9118;DHT22;4594;50.994;7.126;2023-05-14T09:51:10;41.20;37.50
9118;DHT22;4594;50.994;7.126;2023-05-14T09:53:37;41.30;37.30
9118;DHT22;4594;50.994;7.126;2023-05-14T09:56:05;41.50;37.30
9118;DHT22;4594;50.994;7.126;2023-05-14T09:58:31;41.60;37.20
9118;DHT22;4594;50.994;7.126;2023-05-14T10:00:57;41.80;37.00
9118;DHT22;4594;50.994;7.126;2023-05-14T10:03:24;41.90;36.80
9118;DHT22;4594;50.994;7.126;2023-05-14T10:05:52;42.00;36.80
9118;DHT22;4594;50.994;7.126;2023-05-14T10:08:33;42.10;36.60
9118;DHT22;4594;50.994;7.126;2023-05-14T10:11:03;42.30;35.50
9118;DHT22;4594;50.994;7.126;2023-05-14T10:13:38;42.30;36.30
9118;DHT22;4594;50.994;7.126;2023-05-14T10:16:18;42.40;35.70
9118;DHT22;4594;50.994;7.126;2023-05-14T10:18:56;42.30;36.10
9118;DHT22;4594;50.994;7.126;2023-05-14T10:21:25;42.40;35.80
9118;DHT22;4594;50.994;7.126;2023-05-14T10:23:55;42.30;35.60
9118;DHT22;4594;50.994;7.126;2023-05-14T10:26:22;42.10;35.10
9118;DHT22;4594;50.994;7.126;2023-05-14T10:28:48;41.60;34.30
9118;DHT22;4594;50.994;7.126;2023-05-14T10:31:13;41.10;33.70
9118;DHT22;4594;50.994;7.126;2023-05-14T10:33:47;40.40;33.30
9118;DHT22;4594;50.994;7.126;2023-05-14T10:36:16;39.70;32.30
9118;DHT22;4594;50.994;7.126;2023-05-14T10:38:43;38.90;33.00
9118;DHT22;4594;50.994;7.126;2023-05-14T10:41:13;38.30;33.00
9118;DHT22;4594;50.994;7.126;2023-05-14T10:43:42;37.60;32.60
9118;DHT22;4594;50.994;7.126;2023-05-14T10:46:10;36.90;32.60
9118;DHT22;4594;50.994;7.126;2023-05-14T10:48:40;36.20;32.30
9118;DHT22;4594;50.994;7.126;2023-05-14T10:51:10;35.60;32.20
9118;DHT22;4594;50.994;7.126;2023-05-14T10:53:39;35.00;32.20
9118;DHT22;4594;50.994;7.126;2023-05-14T10:56:10;34.40;32.40
9118;DHT22;4594;50.994;7.126;2023-05-14T10:58:38;33.90;32.40
9118;DHT22;4594;50.994;7.126;2023-05-14T11:01:07;33.40;32.50
9118;DHT22;4594;50.994;7.126;2023-05-14T11:03:45;32.90;32.40
9118;DHT22;4594;50.994;7.126;2023-05-14T11:06:13;32.40;31.90
9118;DHT22;4594;50.994;7.126;2023-05-14T11:08:40;32.00;32.40
9118;DHT22;4594;50.994;7.126;2023-05-14T11:11:07;31.60;32.30
9118;DHT22;4594;50.994;7.126;2023-05-14T11:13:34;31.20;32.20
9118;DHT22;4594;50.994;7.126;2023-05-14T11:16:01;30.90;32.40
9118;DHT22;4594;50.994;7.126;2023-05-14T11:18:31;30.50;32.50
9118;DHT22;4594;50.994;7.126;2023-05-14T11:20:59;30.20;32.00
9118;DHT22;4594;50.994;7.126;2023-05-14T11:23:26;29.90;32.50
9118;DHT22;4594;50.994;7.126;2023-05-14T11:25:52;29.60;32.50
9118;DHT22;4594;50.994;7.126;2023-05-14T11:28:20;29.30;32.60
9118;DHT22;4594;50.994;7.126;2023-05-14T11:30:51;29.00;33.10
9118;DHT22;4594;50.994;7.126;2023-05-14T11:33:19;28.70;32.80
9118;DHT22;4594;50.994;7.126;2023-05-14T11:35:45;28.40;32.90
9118;DHT22;4594;50.994;7.126;2023-05-14T11:38:19;28.20;33.10
9118;DHT22;4594;50.994;7.126;2023-05-14T11:40:55;28.00;32.90
9118;DHT22;4594;50.994;7.126;2023-05-14T11:43:22;27.80;32.90
9118;DHT22;4594;50.994;7.126;2023-05-14T11:45:51;27.60;33.20
9118;DHT22;4594;50.994;7.126;2023-05-14T11:48:19;27.40;33.30
9118;DHT22;4594;50.994;7.126;2023-05-14T11:50:50;27.20;33.30
9118;DHT22;4594;50.994;7.126;2023-05-14T11:55:44;27.00;33.50
9118;DHT22;4594;50.994;7.126;2023-05-14T11:58:11;27.00;33.60
9118;DHT22;4594;50.994;7.126;2023-05-14T12:00:37;26.90;33.70
9118;DHT22;4594;50.994;7.126;2023-05-14T12:03:04;26.90;33.80
9118;DHT22;4594;50.994;7.126;2023-05-14T12:05:29;26.90;33.90
9118;DHT22;4594;50.994;7.126;2023-05-14T12:07:55;26.90;33.90
9118;DHT22;4594;50.994;7.126;2023-05-14T12:10:21;27.00;34.10
9118;DHT22;4594;50.994;7.126;2023-05-14T12:12:47;27.10;34.00
9118;DHT22;4594;50.994;7.126;2023-05-14T12:15:14;27.10;33.70
9118;DHT22;4594;50.994;7.126;2023-05-14T12:17:41;27.20;33.80
9118;DHT22;4594;50.994;7.126;2023-05-14T12:20:08;27.20;33.70
9118;DHT22;4594;50.994;7.126;2023-05-14T12:22:35;27.30;33.80
9118;DHT22;4594;50.994;7.126;2023-05-14T12:25:01;27.30;33.70
9118;DHT22;4594;50.994;7.126;2023-05-14T12:27:28;27.30;33.70
9118;DHT22;4594;50.994;7.126;2023-05-14T12:30:05;27.30;33.60
9118;DHT22;4594;50.994;7.126;2023-05-14T12:32:32;27.20;32.90
9118;DHT22;4594;50.994;7.126;2023-05-14T12:34:59;27.30;33.50
9118;DHT22;4594;50.994;7.126;2023-05-14T12:37:27;27.20;33.20
9118;DHT22;4594;50.994;7.126;2023-05-14T12:39:53;27.10;33.10
9118;DHT22;4594;50.994;7.126;2023-05-14T12:42:19;27.10;33.50
9118;DHT22;4594;50.994;7.126;2023-05-14T12:44:45;27.20;33.50
9118;DHT22;4594;50.994;7.126;2023-05-14T12:47:10;27.20;33.50
9118;DHT22;4594;50.994;7.126;2023-05-14T12:49:36;27.20;33.40
9118;DHT22;4594;50.994;7.126;2023-05-14T12:52:02;27.30;33.40
9118;DHT22;4594;50.994;7.126;2023-05-14T12:54:28;27.30;33.40
9118;DHT22;4594;50.994;7.126;2023-05-14T12:56:56;27.30;33.30
9118;DHT22;4594;50.994;7.126;2023-05-14T12:59:22;27.30;33.30
9118;DHT22;4594;50.994;7.126;2023-05-14T13:01:48;27.30;33.30
9118;DHT22;4594;50.994;7.126;2023-05-14T13:04:14;27.30;33.40
9118;DHT22;4594;50.994;7.126;2023-05-14T13:06:40;27.30;33.20
9118;DHT22;4594;50.994;7.126;2023-05-14T13:09:06;27.20;33.20
9118;DHT22;4594;50.994;7.126;2023-05-14T13:11:33;27.20;33.20
9118;DHT22;4594;50.994;7.126;2023-05-14T13:13:59;27.10;33.10
9118;DHT22;4594;50.994;7.126;2023-05-14T13:16:26;27.00;32.70
9118;DHT22;4594;50.994;7.126;2023-05-14T13:18:53;27.00;32.70
9118;DHT22;4594;50.994;7.126;2023-05-14T13:21:19;26.90;32.50
9118;DHT22;4594;50.994;7.126;2023-05-14T13:23:46;26.80;32.50
9118;DHT22;4594;50.994;7.126;2023-05-14T13:26:12;26.80;32.70
9118;DHT22;4594;50.994;7.126;2023-05-14T13:28:38;26.70;32.80
9118;DHT22;4594;50.994;7.126;2023-05-14T13:31:08;26.70;32.90
9118;DHT22;4594;50.994;7.126;2023-05-14T13:33:38;26.70;32.80
9118;DHT22;4594;50.994;7.126;2023-05-14T13:36:08;26.70;32.80
9118;DHT22;4594;50.994;7.126;2023-05-14T13:38:34;26.70;32.60
9118;DHT22;4594;50.994;7.126;2023-05-14T13:41:00;26.70;32.80
9118;DHT22;4594;50.994;7.126;2023-05-14T13:43:33;26.70;32.70
9118;DHT22;4594;50.994;7.126;2023-05-14T13:46:00;26.70;32.20
9118;DHT22;4594;50.994;7.126;2023-05-14T13:48:27;26.70;32.40
9118;DHT22;4594;50.994;7.126;2023-05-14T13:50:53;26.60;32.10
9118;DHT22;4594;50.994;7.126;2023-05-14T13:53:20;26.50;32.00
9118;DHT22;4594;50.994;7.126;2023-05-14T13:55:47;26.50;31.90
9118;DHT22;4594;50.994;7.126;2023-05-14T13:58:14;26.30;31.80
9118;DHT22;4594;50.994;7.126;2023-05-14T14:00:40;26.10;31.90
9118;DHT22;4594;50.994;7.126;2023-05-14T14:03:06;25.90;31.90
9118;DHT22;4594;50.994;7.126;2023-05-14T14:05:33;25.80;31.80
9118;DHT22;4594;50.994;7.126;2023-05-14T14:07:59;25.60;31.80
9118;DHT22;4594;50.994;7.126;2023-05-14T14:10:25;25.50;31.80
9118;DHT22;4594;50.994;7.126;2023-05-14T14:12:51;25.30;31.80
9118;DHT22;4594;50.994;7.126;2023-05-14T14:15:17;25.20;32.00
9118;DHT22;4594;50.994;7.126;2023-05-14T14:17:42;25.10;32.00
9118;DHT22;4594;50.994;7.126;2023-05-14T14:20:08;25.00;32.10
9118;DHT22;4594;50.994;7.126;2023-05-14T14:22:35;25.00;32.20
9118;DHT22;4594;50.994;7.126;2023-05-14T14:25:02;24.90;32.20
9118;DHT22;4594;50.994;7.126;2023-05-14T14:27:28;24.90;32.20
9118;DHT22;4594;50.994;7.126;2023-05-14T14:29:56;24.90;32.30
9118;DHT22;4594;50.994;7.126;2023-05-14T14:32:22;25.00;32.50
9118;DHT22;4594;50.994;7.126;2023-05-14T14:34:47;25.00;32.50
9118;DHT22;4594;50.994;7.126;2023-05-14T14:37:13;25.00;32.50
9118;DHT22;4594;50.994;7.126;2023-05-14T14:39:39;25.10;32.70
9118;DHT22;4594;50.994;7.126;2023-05-14T14:42:05;25.20;32.90
9118;DHT22;4594;50.994;7.126;2023-05-14T14:44:31;25.20;32.70
9118;DHT22;4594;50.994;7.126;2023-05-14T14:46:57;25.20;33.10
9118;DHT22;4594;50.994;7.126;2023-05-14T14:49:22;25.20;32.70
9118;DHT22;4594;50.994;7.126;2023-05-14T14:51:48;25.20;32.50
9118;DHT22;4594;50.994;7.126;2023-05-14T14:54:14;25.20;32.60
9118;DHT22;4594;50.994;7.126;2023-05-14T14:56:40;25.20;32.70
9118;DHT22;4594;50.994;7.126;2023-05-14T14:59:07;25.10;32.60
9118;DHT22;4594;50.994;7.126;2023-05-14T15:01:33;25.10;32.60
9118;DHT22;4594;50.994;7.126;2023-05-14T15:03:58;25.00;32.60
9118;DHT22;4594;50.994;7.126;2023-05-14T15:06:24;25.00;32.70
9118;DHT22;4594;50.994;7.126;2023-05-14T15:08:50;25.00;32.60
9118;DHT22;4594;50.994;7.126;2023-05-14T15:11:15;25.00;32.60
9118;DHT22;4594;50.994;7.126;2023-05-14T15:13:41;24.90;32.40
9118;DHT22;4594;50.994;7.126;2023-05-14T15:16:07;24.90;32.60
9118;DHT22;4594;50.994;7.126;2023-05-14T15:18:33;24.90;32.60
9118;DHT22;4594;50.994;7.126;2023-05-14T15:20:58;24.90;32.60
9118;DHT22;4594;50.994;7.126;2023-05-14T15:23:24;24.90;32.70
9118;DHT22;4594;50.994;7.126;2023-05-14T15:25:50;24.90;32.70
9118;DHT22;4594;50.994;7.126;2023-05-14T15:28:16;24.90;32.60
9118;DHT22;4594;50.994;7.126;2023-05-14T15:30:41;24.90;32.60
9118;DHT22;4594;50.994;7.126;2023-05-14T15:33:07;24.90;32.60
9118;DHT22;4594;50.994;7.126;2023-05-14T15:35:33;24.80;32.50
9118;DHT22;4594;50.994;7.126;2023-05-14T15:37:59;24.80;32.70
9118;DHT22;4594;50.994;7.126;2023-05-14T15:40:26;24.70;32.60
9118;DHT22;4594;50.994;7.126;2023-05-14T15:42:51;24.70;32.60
9118;DHT22;4594;50.994;7.126;2023-05-14T15:45:17;24.60;32.70
9118;DHT22;4594;50.994;7.126;2023-05-14T15:47:43;24.50;32.60
9118;DHT22;4594;50.994;7.126;2023-05-14T15:50:11;24.50;32.80
9118;DHT22;4594;50.994;7.126;2023-05-14T15:52:37;24.50;32.90
9118;DHT22;4594;50.994;7.126;2023-05-14T15:55:04;24.50;33.00
9118;DHT22;4594;50.994;7.126;2023-05-14T15:57:31;24.50;32.90
9118;DHT22;4594;50.994;7.126;2023-05-14T15:59:56;24.50;33.00
9118;DHT22;4594;50.994;7.126;2023-05-14T16:02:22;24.50;32.90
9118;DHT22;4594;50.994;7.126;2023-05-14T16:04:48;24.50;32.80
9118;DHT22;4594;50.994;7.126;2023-05-14T16:07:14;24.50;32.70